Flight Track Log - Related Links

Times and Time Zones

All times are in EST time to prevent confusion due to time zone crossing. See the SWA1259 flight status page for this flight to view local times or setup timezone preferences in your user account.

Time Position Orientation Groundspeed Altitude Reporting Facility
EST Latitude Longitude Course Direction KTS MPH feet Rate Location/Type
Fri 06:06:20 AM 42.9833 -71.4000 64° Northeast 177 204 2,400  Level KA90
Fri 06:08:32 AM 43.0417 -71.2375 64° Northeast 292 336 7,100 2,518 Climbing Boston Center
Fri 06:09:33 AM 43.0578 -71.1161 80° East 321 369 10,500 2,850 Climbing Boston Center
Fri 06:10:32 AM 43.0006 -71.0028 125° Southeast 369 425 12,800 2,826 Climbing Boston Center
Fri 06:11:34 AM 42.9119 -70.9278 148° Southeast 380 437 16,200 2,902 Climbing Boston Center
Fri 06:12:34 AM 42.8181 -70.9656 196° South 355 409 18,700 2,628 Climbing Boston Center
Fri 06:13:35 AM 42.7214 -71.0089 198° South 360 414 21,500 2,579 Climbing Boston Center
Fri 06:14:35 AM 42.6189 -71.0600 200° South 380 437 23,900 2,231 Climbing Boston Center
Fri 06:15:36 AM 42.5150 -71.1108 200° South 392 451 26,000 2,016 Climbing Boston Center
Fri 06:16:37 AM 42.4156 -71.1806 207° Southwest 402 463 28,000 2,400 Climbing Boston Center
Fri 06:17:36 AM 42.3744 -71.3050 246° West 368 423 30,800 2,650 Climbing Boston Center
Fri 06:18:37 AM 42.3336 -71.4331 247° West 359 413 33,300 1,561 Climbing Boston Center
Fri 06:19:39 AM 42.2983 -71.5533 248° West 349 402 34,000 344 Climbing Boston Center
Fri 06:20:39 AM 42.2619 -71.6733 248° West 346 398 34,000  Level Boston Center
Fri 06:21:41 AM 42.2236 -71.7922 247° West 346 398 34,000  Level Boston Center
Fri 06:22:39 AM 42.1875 -71.9111 248° West 342 394 34,000  Level Boston Center
Fri 06:23:42 AM 42.1456 -72.0311 245° Southwest 351 404 34,000  Level Boston Center
Fri 06:24:43 AM 42.0842 -72.1394 233° Southwest 361 415 34,000  Level Boston Center
Fri 06:25:43 AM 42.0247 -72.2486 234° Southwest 362 417 34,000  Level Boston Center
Fri 06:26:44 AM 41.9633 -72.3581 233° Southwest 364 419 34,000  Level Boston Center
Fri 06:27:44 AM 41.9036 -72.4678 234° Southwest 364 419 34,000  Level Boston Center
Fri 06:28:46 AM 41.8439 -72.5767 234° Southwest 363 418 34,000  Level Boston Center
Fri 06:29:45 AM 41.7836 -72.6858 234° Southwest 362 417 34,000  Level Boston Center
Fri 06:30:46 AM 41.7219 -72.7939 233° Southwest 365 420 34,000  Level Boston Center
Fri 06:31:48 AM 41.6625 -72.9019 234° Southwest 363 418 34,000  Level Boston Center
Fri 06:32:49 AM 41.6042 -73.0108 234° Southwest 360 414 34,000  Level Boston Center
Fri 06:33:50 AM 41.5428 -73.1203 233° Southwest 367 422 34,000  Level Boston Center
Fri 06:34:50 AM 41.4775 -73.2364 233° Southwest 364 419 34,000  Level Boston Center
Fri 06:35:52 AM 41.4169 -73.3439 233° Southwest 364 419 34,000  Level Boston Center
Fri 06:36:53 AM 41.3558 -73.4497 232° Southwest 363 418 34,000  Level Boston Center
Fri 06:37:54 AM 41.2836 -73.5772 233° Southwest 363 418 34,000  Level Boston Center
Fri 06:38:54 AM 41.2222 -73.6828 232° Southwest 362 417 34,000  Level Boston Center
Fri 06:39:55 AM 41.1589 -73.7867 231° Southwest 363 418 34,000  Level Boston Center
Fri 06:41:04 AM 41.0864 -73.9150 233° Southwest 373 429 34,000  Level New York Center
Fri 06:42:04 AM 41.0253 -74.0194 232° Southwest 373 429 34,000  Level New York Center
Fri 06:43:04 AM 40.9597 -74.1261 231° Southwest 373 429 34,000 -550 Level New York Center
Fri 06:44:04 AM 40.8944 -74.2244 229° Southwest 373 429 32,900 -2,150 Descending New York Center
Fri 06:45:04 AM 40.8308 -74.3336 232° Southwest 368 423 29,700 -2,450 Descending New York Center
Fri 06:46:04 AM 40.7672 -74.4397 232° Southwest 373 429 28,000 -850 Descending New York Center
Fri 06:47:04 AM 40.7011 -74.5486 231° Southwest 378 435 28,000  Level New York Center
Fri 06:48:05 AM 40.6353 -74.6569 231° Southwest 383 441 28,000 -150 Level New York Center
Fri 06:49:04 AM 40.5792 -74.7742 238° Southwest 383 441 27,700 -706 Descending New York Center
Fri 06:50:04 AM 40.5433 -74.9031 250° West 376 433 26,600 -1,050 Descending New York Center
Fri 06:51:04 AM 40.5144 -75.0158 251° West 376 433 25,600 -1,000 Descending New York Center
Fri 06:52:04 AM 40.4686 -75.1306 242° Southwest 370 426 24,600 -3,800 Descending New York Center
Fri 06:53:04 AM 40.3958 -75.2375 228° Southwest 360 414 18,000 -2,000 Descending New York Center
Fri 06:54:04 AM 40.3342 -75.3208 226° Southwest 360 414 20,600 600 Climbing New York Center
Fri 06:55:04 AM 40.2686 -75.4008 223° Southwest 347 399 19,200 -1,300 Descending New York Center
Fri 06:56:04 AM 40.1761 -75.4706 210° Southwest 345 397 18,000 -600 Descending New York Center
Fri 06:57:04 AM 40.1031 -75.5281 211° Southwest 350 403 18,000  Level New York Center
Fri 06:58:04 AM 40.0169 -75.5956 211° Southwest 345 397 18,000  Level New York Center
Fri 06:59:04 AM 39.9458 -75.6503 211° Southwest 345 397 18,000  Level New York Center
Fri 07:00:04 AM 39.8794 -75.7456 228° Southwest 332 382 18,000 -150 Level New York Center
Fri 07:01:04 AM 39.8339 -75.8317 235° Southwest 332 382 17,700 -1,615 Descending New York Center
Fri 07:03:32 AM 39.7167 -76.0500 235° Southwest 290 334 12,400 -1,673 Descending Potomac TRACON
Fri 07:04:32 AM 39.6667 -76.1333 232° Southwest 259 298 11,900 -595 Descending Potomac TRACON
Fri 07:05:33 AM 39.6167 -76.2000 226° Southwest 251 289 11,200 -900 Descending Potomac TRACON
Fri 07:07:32 AM 39.5167 -76.3167 222° Southwest 246 283 9,200 -1,006 Descending Potomac TRACON
Fri 07:08:32 AM 39.4667 -76.3667 218° Southwest 242 278 8,200 -947 Descending Potomac TRACON
Fri 07:09:26 AM 39.4167 -76.4167 218° Southwest 240 276 7,400 -1,053 Descending Potomac TRACON
Fri 07:10:26 AM 39.3500 -76.4333 191° South 262 302 6,200 -1,250 Descending Potomac TRACON
Fri 07:11:26 AM 39.2833 -76.4167 169° South 257 296 4,900 -992 Descending Potomac TRACON
Fri 07:12:27 AM 39.2167 -76.4167 180° South 228 262 4,200 -595 Descending Potomac TRACON
Fri 07:13:27 AM 39.1500 -76.4167 180° South 216 249 3,700 -579 Descending Potomac TRACON
Fri 07:14:21 AM 39.1000 -76.4333 195° South 212 244 3,100 -421 Descending Potomac TRACON
Fri 07:15:21 AM 39.0667 -76.4667 218° Southwest 189 217 2,900 -200 Descending Potomac TRACON
Fri 07:16:21 AM 39.0500 -76.5167 247° West 165 190 2,700 -202 Descending Potomac TRACON
Fri 07:17:20 AM 39.0667 -76.5667 293° West 132 152 2,500 -368 Descending Potomac TRACON
Fri 07:18:15 AM 39.0833 -76.5833 322° Northwest 124 143 2,000 -606 Descending Potomac TRACON
Fri 07:19:09 AM 39.1167 -76.6167 322° Northwest 125 144 1,400 -684 Descending Potomac TRACON
Fri 07:20:09 AM 39.1500 -76.6500 322° Northwest 134 154 700 -700 Descending Potomac TRACON
Fri 07:22:00 AM 39.1667 -76.6667 270° West  Level FlightAware Approximate
Fri 07:29:00 AM 39.1754 -76.6683 270° West  Level Estimated

Login

Don't have an account? Register now (free) for customized features, flight alerts, and more!